KRHV/RHV METAR and TAF weather

Enter ICAO airport designator
Station Type Date Time Source
KRHV METAR 2020/01/29 05:54 UTC NOAA

KRHV 290554Z 00000KT 5SM FEW010 SCT020 BKN040 11/08 A3031


Station Type Date Time Source
KRHV Decoded METAR 2020/01/29 05:54 UTC NOAA

San Jose / Reid / Hillv, CA, United States (KRHV) 37-20N 121-49W
Jan 29, 2020 - 12:54 AM EST / 2020.01.29 0554 UTC
Wind: Calm:0
Visibility: 5 mile(s):0
Sky conditions: mostly cloudy
Temperature: 51 F (11 C)
Dew Point: 46 F (8 C)
Relative Humidity: 81%
Pressure (altimeter): 30.31 in. Hg (1026 hPa)
ob: KRHV 290554Z 00000KT 5SM FEW010 SCT020 BKN040 11/08 A3031
cycle: 6

Station Type Date Time Source
KRHV TAF UTC NOAA

Error!

Example: see airport list